Time;durP1;ratioP1;P1;durP2;ratioP2;P2;SDS_P1;SDS_P2;PMS_P1;PMS_P2;Temp;Humidity;BMP_temperature;BMP_pressure;BME280_temperature;BME280_humidity;BME280_pressure;Samples;Min_cycle;Max_cycle;Signal;HPM_P1;HPM_P2
2024/03/18 00:00:32;;;;;;;15.02;4.20;;;;;;;;;;7572507;19;20082;-71
2024/03/18 00:03:04;;;;;;;16.35;4.70;;;;;;;;;;7561836;19;20026;-73
2024/03/18 00:05:36;;;;;;;7.38;3.55;;;;;;;;;;7576211;19;20010;-73
2024/03/18 00:08:07;;;;;;;7.82;3.58;;;;;;;;;;7570336;19;20022;-73
2024/03/18 00:10:39;;;;;;;8.45;3.67;;;;;;;;;;7590272;19;20025;-74
2024/03/18 00:13:10;;;;;;;10.90;3.45;;;;;;;;;;7560800;19;20015;-73
2024/03/18 00:15:42;;;;;;;15.32;4.20;;;;;;;;;;7562484;19;20029;-75
2024/03/18 00:18:14;;;;;;;7.85;3.90;;;;;;;;;;7562750;19;20393;-73
2024/03/18 00:20:45;;;;;;;14.23;4.28;;;;;;;;;;7568798;19;20018;-74
2024/03/18 00:23:17;;;;;;;8.88;3.92;;;;;;;;;;7560286;19;20701;-74
2024/03/18 00:25:48;;;;;;;12.10;3.70;;;;;;;;;;7576537;19;20022;-73
2024/03/18 00:28:20;;;;;;;7.18;3.45;;;;;;;;;;7580135;19;20038;-75
2024/03/18 00:30:51;;;;;;;8.18;3.70;;;;;;;;;;7584945;19;20035;-74
2024/03/18 00:33:24;;;;;;;6.50;3.72;;;;;;;;;;7571191;19;20015;-73
2024/03/18 00:35:56;;;;;;;9.05;3.97;;;;;;;;;;7577901;19;20646;-75
2024/03/18 00:38:28;;;;;;;7.18;4.20;;;;;;;;;;7576465;19;20630;-73
2024/03/18 00:43:50;;;;;;;7.45;3.95;;;;;;;;;;7573731;19;20022;-73
2024/03/18 00:46:22;;;;;;;9.60;4.03;;;;;;;;;;7573304;19;20018;-73
2024/03/18 00:48:54;;;;;;;10.38;4.25;;;;;;;;;;7560285;19;20921;-76
2024/03/18 00:51:26;;;;;;;11.15;3.70;;;;;;;;;;7567126;19;20018;-75
2024/03/18 00:53:57;;;;;;;8.15;4.18;;;;;;;;;;7566476;19;21773;-74
2024/03/18 00:56:29;;;;;;;6.93;3.47;;;;;;;;;;7564757;19;20330;-73
2024/03/18 00:59:00;;;;;;;6.63;3.30;;;;;;;;;;7567998;19;20024;-75
2024/03/18 01:01:37;;;;;;;6.72;3.80;;;;;;;;;;7546372;19;20870;-75
2024/03/18 01:04:09;;;;;;;10.45;3.80;;;;;;;;;;7568181;19;20022;-73
2024/03/18 01:06:40;;;;;;;9.13;3.90;;;;;;;;;;7559657;19;20607;-73
2024/03/18 01:09:12;;;;;;;8.07;4.00;;;;;;;;;;7552811;19;20018;-74
2024/03/18 01:11:44;;;;;;;9.60;3.75;;;;;;;;;;7556759;19;20029;-75
2024/03/18 01:14:16;;;;;;;7.32;3.55;;;;;;;;;;7568308;19;20574;-75
2024/03/18 01:16:48;;;;;;;7.97;3.78;;;;;;;;;;7566416;19;21293;-76
2024/03/18 01:19:19;;;;;;;9.95;3.30;;;;;;;;;;7520903;19;20031;-73
2024/03/18 01:21:51;;;;;;;9.43;3.67;;;;;;;;;;7544367;19;20038;-75
2024/03/18 01:24:23;;;;;;;14.52;3.80;;;;;;;;;;7564656;19;20991;-75
2024/03/18 01:26:54;;;;;;;8.63;3.03;;;;;;;;;;7559138;19;21306;-73
2024/03/18 01:29:26;;;;;;;7.82;3.25;;;;;;;;;;7587976;19;20015;-75
2024/03/18 01:31:57;;;;;;;7.07;3.28;;;;;;;;;;7562823;19;20036;-75
2024/03/18 01:34:29;;;;;;;6.88;3.53;;;;;;;;;;7578895;19;20089;-73
2024/03/18 01:37:01;;;;;;;7.22;3.28;;;;;;;;;;7576160;19;20018;-75
2024/03/18 01:39:32;;;;;;;6.22;3.22;;;;;;;;;;7578825;19;20695;-75
2024/03/18 01:42:04;;;;;;;6.35;2.92;;;;;;;;;;7571798;19;20019;-75
2024/03/18 01:44:51;;;;;;;5.53;2.95;;;;;;;;;;7581524;19;20018;-75
2024/03/18 01:47:24;;;;;;;10.05;3.13;;;;;;;;;;7571221;19;20031;-74
2024/03/18 01:49:56;;;;;;;6.93;3.72;;;;;;;;;;7581137;19;20018;-73
2024/03/18 01:52:27;;;;;;;6.95;2.90;;;;;;;;;;7575751;19;20125;-73
2024/03/18 01:54:59;;;;;;;8.13;3.08;;;;;;;;;;7554401;19;20023;-73
2024/03/18 01:57:31;;;;;;;7.65;2.72;;;;;;;;;;7561318;19;20022;-73
2024/03/18 02:00:05;;;;;;;4.57;2.40;;;;;;;;;;7574050;19;20018;-73
2024/03/18 02:02:40;;;;;;;7.63;3.03;;;;;;;;;;7551575;19;20031;-75
2024/03/18 02:05:14;;;;;;;5.60;2.60;;;;;;;;;;7565920;19;20019;-75
2024/03/18 02:07:45;;;;;;;7.10;3.10;;;;;;;;;;7555171;19;20722;-76
2024/03/18 02:10:17;;;;;;;3.97;2.53;;;;;;;;;;7560465;19;20025;-75
2024/03/18 02:12:49;;;;;;;5.90;2.47;;;;;;;;;;7557271;19;21002;-73
2024/03/18 02:15:21;;;;;;;4.75;2.65;;;;;;;;;;7574016;19;20022;-73
2024/03/18 02:17:53;;;;;;;6.53;2.85;;;;;;;;;;7566854;19;20026;-73
2024/03/18 02:20:25;;;;;;;5.00;2.45;;;;;;;;;;7566234;19;20029;-76
2024/03/18 02:22:57;;;;;;;8.30;2.72;;;;;;;;;;7557165;19;20583;-75
2024/03/18 02:25:29;;;;;;;6.55;2.88;;;;;;;;;;7572499;19;20086;-73
2024/03/18 02:28:00;;;;;;;7.88;2.60;;;;;;;;;;7570116;19;20074;-75
2024/03/18 02:30:32;;;;;;;6.10;2.60;;;;;;;;;;7595149;19;20021;-74
2024/03/18 02:33:04;;;;;;;6.05;2.63;;;;;;;;;;7577324;19;20034;-73
2024/03/18 02:35:36;;;;;;;7.18;2.70;;;;;;;;;;7550514;19;20021;-75
2024/03/18 02:38:07;;;;;;;10.65;2.85;;;;;;;;;;7561432;19;20022;-75
2024/03/18 02:40:39;;;;;;;7.20;2.65;;;;;;;;;;7580437;19;20800;-75
2024/03/18 02:43:11;;;;;;;8.95;2.50;;;;;;;;;;7545668;19;20019;-75
2024/03/18 02:45:42;;;;;;;4.47;2.50;;;;;;;;;;7579924;19;20022;-74
2024/03/18 02:48:14;;;;;;;7.43;2.50;;;;;;;;;;7571968;19;20033;-74
2024/03/18 02:50:46;;;;;;;7.25;2.22;;;;;;;;;;7565112;19;20577;-75
2024/03/18 02:53:17;;;;;;;9.75;3.00;;;;;;;;;;7563848;19;20030;-75
2024/03/18 02:55:50;;;;;;;14.95;5.78;;;;;;;;;;7563317;19;20599;-73
2024/03/18 02:58:21;;;;;;;11.38;4.30;;;;;;;;;;7552258;19;20019;-75
2024/03/18 03:00:53;;;;;;;8.45;3.75;;;;;;;;;;7548792;19;20132;-73
2024/03/18 03:03:24;;;;;;;5.88;3.03;;;;;;;;;;7563327;19;20134;-73
2024/03/18 03:05:56;;;;;;;6.65;2.88;;;;;;;;;;7574175;19;20018;-73
2024/03/18 03:08:27;;;;;;;6.07;1.95;;;;;;;;;;7567406;19;20019;-73
2024/03/18 03:11:04;;;;;;;9.35;2.47;;;;;;;;;;7558504;19;20018;-73
2024/03/18 03:13:36;;;;;;;4.35;2.15;;;;;;;;;;7565076;19;20014;-74
2024/03/18 03:16:12;;;;;;;11.68;2.30;;;;;;;;;;7582622;19;20034;-76
2024/03/18 03:18:43;;;;;;;2.90;1.73;;;;;;;;;;7567011;19;20021;-75
2024/03/18 03:21:15;;;;;;;5.00;2.28;;;;;;;;;;7559219;19;20095;-76
2024/03/18 03:23:47;;;;;;;5.20;2.13;;;;;;;;;;7569961;19;20902;-73
2024/03/18 03:26:18;;;;;;;3.75;1.63;;;;;;;;;;7563925;19;20014;-75
2024/03/18 03:28:50;;;;;;;7.13;2.40;;;;;;;;;;7562715;19;20109;-74
2024/03/18 03:31:22;;;;;;;5.55;2.22;;;;;;;;;;7566976;19;20022;-73
2024/03/18 03:33:54;;;;;;;7.00;2.67;;;;;;;;;;7561690;19;20596;-73
2024/03/18 03:36:25;;;;;;;7.50;3.30;;;;;;;;;;7570315;19;20027;-73
2024/03/18 03:38:57;;;;;;;5.10;1.50;;;;;;;;;;7550296;19;20046;-73
2024/03/18 03:41:29;;;;;;;8.85;2.30;;;;;;;;;;7565122;19;20815;-73
2024/03/18 03:44:00;;;;;;;5.93;2.15;;;;;;;;;;7580262;19;20766;-73
2024/03/18 03:46:32;;;;;;;4.93;2.72;;;;;;;;;;7577161;19;21496;-73
2024/03/18 03:49:04;;;;;;;5.63;2.45;;;;;;;;;;7576087;19;20820;-75
2024/03/18 03:51:35;;;;;;;8.00;2.80;;;;;;;;;;7574233;19;20114;-73
2024/03/18 03:54:07;;;;;;;3.00;1.88;;;;;;;;;;7558205;19;20018;-73
2024/03/18 03:56:39;;;;;;;5.72;2.75;;;;;;;;;;7583294;19;21174;-74
2024/03/18 03:59:10;;;;;;;11.32;3.88;;;;;;;;;;7562843;19;20089;-73
2024/03/18 04:01:42;;;;;;;10.63;2.45;;;;;;;;;;7563295;19;20924;-74
2024/03/18 04:04:13;;;;;;;8.32;3.22;;;;;;;;;;7566461;19;22234;-74
2024/03/18 04:06:45;;;;;;;7.63;3.05;;;;;;;;;;7562433;19;20418;-73
2024/03/18 04:09:17;;;;;;;7.50;2.53;;;;;;;;;;7544153;19;20010;-75
2024/03/18 04:11:49;;;;;;;6.32;2.50;;;;;;;;;;7582838;19;20897;-75
2024/03/18 04:14:20;;;;;;;3.92;2.28;;;;;;;;;;7547236;19;20030;-74
2024/03/18 04:16:52;;;;;;;6.55;2.28;;;;;;;;;;7568569;19;20034;-74
2024/03/18 04:19:24;;;;;;;6.68;2.47;;;;;;;;;;7534699;19;20018;-74
2024/03/18 04:21:55;;;;;;;5.65;2.50;;;;;;;;;;7551511;19;21009;-74
2024/03/18 04:24:27;;;;;;;12.82;3.58;;;;;;;;;;7554297;19;20018;-74
2024/03/18 04:26:59;;;;;;;12.60;3.50;;;;;;;;;;7569210;19;20041;-73
2024/03/18 04:29:31;;;;;;;12.38;4.35;;;;;;;;;;7553491;19;20098;-74
2024/03/18 04:32:05;;;;;;;12.90;3.95;;;;;;;;;;7522347;19;20709;-74
2024/03/18 04:34:36;;;;;;;14.00;5.88;;;;;;;;;;7521578;19;20018;-74
2024/03/18 04:37:08;;;;;;;13.95;5.95;;;;;;;;;;7570805;19;20053;-74
2024/03/18 04:39:40;;;;;;;15.63;5.18;;;;;;;;;;7566410;19;20018;-74
2024/03/18 04:42:12;;;;;;;5.55;3.40;;;;;;;;;;7555873;19;20027;-74
2024/03/18 04:44:44;;;;;;;9.20;3.65;;;;;;;;;;7566582;19;20019;-73
2024/03/18 04:47:15;;;;;;;12.38;4.05;;;;;;;;;;7566216;19;20033;-73
2024/03/18 04:49:47;;;;;;;5.35;3.40;;;;;;;;;;7563682;19;20018;-75
2024/03/18 04:52:19;;;;;;;6.50;3.20;;;;;;;;;;7545977;19;20015;-73
2024/03/18 04:54:51;;;;;;;6.38;2.40;;;;;;;;;;7580277;19;20048;-73
2024/03/18 04:57:22;;;;;;;5.20;2.13;;;;;;;;;;7560058;19;20014;-75
2024/03/18 04:59:54;;;;;;;3.53;1.60;;;;;;;;;;7581028;19;20021;-75
2024/03/18 05:02:25;;;;;;;3.65;1.15;;;;;;;;;;7576278;19;20591;-74
2024/03/18 05:04:57;;;;;;;2.33;1.50;;;;;;;;;;7547062;19;20023;-75
2024/03/18 05:07:29;;;;;;;5.50;1.80;;;;;;;;;;7549752;19;20018;-75
2024/03/18 05:10:00;;;;;;;9.38;2.80;;;;;;;;;;7536656;19;20045;-74
2024/03/18 05:12:32;;;;;;;4.20;2.42;;;;;;;;;;7575106;19;20418;-75
2024/03/18 05:15:04;;;;;;;3.30;1.80;;;;;;;;;;7581484;19;20011;-73
2024/03/18 05:17:36;;;;;;;7.22;2.47;;;;;;;;;;7566078;19;20019;-74
2024/03/18 05:20:11;;;;;;;5.35;1.60;;;;;;;;;;7571142;19;20024;-74
2024/03/18 05:22:43;;;;;;;5.53;1.75;;;;;;;;;;7553395;19;20626;-74
2024/03/18 05:25:15;;;;;;;5.65;1.40;;;;;;;;;;7549223;19;20021;-74
2024/03/18 05:27:46;;;;;;;4.18;1.52;;;;;;;;;;7563368;19;20013;-74
2024/03/18 05:30:18;;;;;;;4.53;1.65;;;;;;;;;;7551120;19;20014;-73
2024/03/18 05:32:50;;;;;;;5.40;1.88;;;;;;;;;;7564925;19;20015;-72
2024/03/18 05:35:21;;;;;;;2.55;1.50;;;;;;;;;;7565759;19;20030;-73
2024/03/18 05:37:53;;;;;;;3.70;1.70;;;;;;;;;;7557282;19;20039;-74
2024/03/18 05:40:25;;;;;;;4.65;1.52;;;;;;;;;;7561204;19;20025;-75
2024/03/18 05:42:57;;;;;;;3.22;1.45;;;;;;;;;;7572077;19;20048;-75
2024/03/18 05:45:29;;;;;;;3.60;1.67;;;;;;;;;;7567957;19;20018;-75
2024/03/18 05:48:00;;;;;;;14.15;2.05;;;;;;;;;;7569635;19;20025;-74
2024/03/18 05:50:32;;;;;;;4.22;1.88;;;;;;;;;;7565441;19;20050;-75
2024/03/18 05:53:04;;;;;;;4.15;1.60;;;;;;;;;;7556416;19;20012;-73
2024/03/18 05:55:35;;;;;;;4.72;1.45;;;;;;;;;;7551870;19;20014;-75
2024/03/18 05:58:08;;;;;;;6.45;1.88;;;;;;;;;;7569803;19;20051;-75
2024/03/18 06:00:39;;;;;;;5.18;1.80;;;;;;;;;;7553848;19;20021;-75
2024/03/18 06:03:11;;;;;;;2.17;1.33;;;;;;;;;;7547660;19;22934;-74
2024/03/18 06:05:42;;;;;;;6.07;1.63;;;;;;;;;;7537989;19;21348;-75
2024/03/18 06:08:15;;;;;;;6.15;1.40;;;;;;;;;;7530839;19;20021;-75
2024/03/18 06:10:46;;;;;;;5.15;1.75;;;;;;;;;;7530179;19;20018;-75
2024/03/18 06:13:18;;;;;;;3.42;1.30;;;;;;;;;;7519346;19;20017;-75
2024/03/18 06:15:50;;;;;;;4.88;1.27;;;;;;;;;;7547396;19;20454;-76
2024/03/18 06:18:22;;;;;;;3.97;1.40;;;;;;;;;;7529244;19;20007;-76
2024/03/18 06:20:56;;;;;;;4.75;1.25;;;;;;;;;;7529004;19;20267;-77
2024/03/18 06:23:30;;;;;;;4.93;1.35;;;;;;;;;;7549149;19;20025;-77
2024/03/18 06:26:03;;;;;;;6.95;1.42;;;;;;;;;;7551304;19;20014;-77
2024/03/18 06:28:35;;;;;;;2.40;1.38;;;;;;;;;;7549464;19;20042;-77
2024/03/18 06:31:07;;;;;;;5.32;1.73;;;;;;;;;;7541331;19;20019;-76
2024/03/18 06:33:39;;;;;;;2.63;1.20;;;;;;;;;;7533014;19;20015;-77
2024/03/18 06:36:11;;;;;;;5.00;1.85;;;;;;;;;;7548772;19;20590;-76
2024/03/18 06:38:43;;;;;;;8.18;1.70;;;;;;;;;;7565711;19;20022;-76
2024/03/18 06:41:14;;;;;;;4.65;1.35;;;;;;;;;;7577282;19;20082;-75
2024/03/18 06:43:46;;;;;;;4.03;1.50;;;;;;;;;;7573443;19;20014;-75
2024/03/18 06:46:18;;;;;;;2.65;1.60;;;;;;;;;;7561614;19;21414;-77
2024/03/18 06:48:49;;;;;;;4.13;1.80;;;;;;;;;;7566048;19;20014;-75
2024/03/18 06:51:21;;;;;;;6.15;1.80;;;;;;;;;;7556273;19;20900;-74
2024/03/18 06:53:53;;;;;;;3.80;1.58;;;;;;;;;;7560032;19;20014;-75
2024/03/18 06:56:25;;;;;;;4.45;1.80;;;;;;;;;;7556565;19;20079;-76
2024/03/18 06:58:56;;;;;;;4.88;1.92;;;;;;;;;;7562935;19;20041;-75
2024/03/18 07:01:28;;;;;;;4.95;1.90;;;;;;;;;;7562984;19;20019;-75
2024/03/18 07:03:59;;;;;;;5.28;1.90;;;;;;;;;;7556234;19;20014;-75
2024/03/18 07:06:32;;;;;;;4.38;1.80;;;;;;;;;;7576185;19;20015;-77
2024/03/18 07:09:05;;;;;;;6.70;2.00;;;;;;;;;;7571305;19;20018;-76
2024/03/18 07:11:37;;;;;;;3.73;1.70;;;;;;;;;;7561028;19;21108;-76
2024/03/18 07:14:08;;;;;;;4.30;1.80;;;;;;;;;;7566907;19;20970;-75
2024/03/18 07:16:40;;;;;;;1.92;1.50;;;;;;;;;;7553084;19;20703;-77
2024/03/18 07:19:11;;;;;;;6.18;1.50;;;;;;;;;;7565413;19;20045;-74
2024/03/18 07:21:43;;;;;;;4.45;1.75;;;;;;;;;;7566276;19;20502;-74
2024/03/18 07:24:15;;;;;;;5.55;1.60;;;;;;;;;;7559048;19;20029;-75
2024/03/18 07:26:46;;;;;;;3.88;1.95;;;;;;;;;;7570785;19;20037;-74
2024/03/18 07:29:19;;;;;;;3.33;1.40;;;;;;;;;;7579227;19;20832;-74
2024/03/18 07:31:56;;;;;;;3.73;1.80;;;;;;;;;;7564763;19;20025;-74
2024/03/18 07:34:28;;;;;;;3.13;1.83;;;;;;;;;;7550104;19;20629;-75
2024/03/18 07:36:59;;;;;;;4.18;1.80;;;;;;;;;;7563094;19;20015;-75
2024/03/18 07:39:31;;;;;;;6.13;1.60;;;;;;;;;;7571090;19;20014;-74
2024/03/18 07:42:03;;;;;;;5.45;1.52;;;;;;;;;;7572802;19;20637;-75
2024/03/18 07:44:35;;;;;;;5.78;1.63;;;;;;;;;;7557423;19;20855;-76
2024/03/18 07:47:06;;;;;;;3.05;1.35;;;;;;;;;;7570178;19;20031;-76
2024/03/18 07:49:38;;;;;;;3.38;1.58;;;;;;;;;;7573760;19;20014;-74
2024/03/18 07:52:10;;;;;;;4.40;1.75;;;;;;;;;;7569197;19;20316;-76
2024/03/18 07:54:43;;;;;;;3.95;1.65;;;;;;;;;;7576260;19;20014;-74
2024/03/18 07:57:16;;;;;;;4.60;1.88;;;;;;;;;;7560828;19;20516;-74
2024/03/18 07:59:48;;;;;;;3.97;1.40;;;;;;;;;;7558826;19;20052;-74
2024/03/18 08:02:19;;;;;;;5.50;1.90;;;;;;;;;;7572759;19;20018;-74
2024/03/18 08:04:53;;;;;;;9.18;1.90;;;;;;;;;;7549832;19;20046;-72
2024/03/18 08:07:24;;;;;;;3.38;1.33;;;;;;;;;;7565812;19;20019;-75
2024/03/18 08:09:56;;;;;;;3.92;1.40;;;;;;;;;;7571408;19;20018;-75
2024/03/18 08:12:28;;;;;;;3.28;1.27;;;;;;;;;;7573358;19;20871;-75
2024/03/18 08:14:59;;;;;;;2.78;1.13;;;;;;;;;;7572496;19;20026;-75
2024/03/18 08:17:31;;;;;;;3.53;1.15;;;;;;;;;;7552523;19;20895;-74
2024/03/18 08:20:03;;;;;;;3.92;1.17;;;;;;;;;;7572529;19;20105;-76
2024/03/18 08:22:35;;;;;;;2.15;0.90;;;;;;;;;;7563546;19;20014;-77
2024/03/18 08:25:11;;;;;;;2.30;1.00;;;;;;;;;;7578808;19;20710;-74
2024/03/18 08:27:42;;;;;;;2.92;1.25;;;;;;;;;;7569360;19;20737;-76
2024/03/18 08:30:14;;;;;;;3.10;1.10;;;;;;;;;;7586222;19;21160;-76
2024/03/18 08:32:45;;;;;;;3.67;1.10;;;;;;;;;;7580573;19;20014;-75
2024/03/18 08:35:17;;;;;;;4.00;1.00;;;;;;;;;;7582754;19;20025;-75
2024/03/18 08:37:49;;;;;;;6.70;1.00;;;;;;;;;;7573748;19;20019;-74
2024/03/18 08:40:20;;;;;;;5.80;0.80;;;;;;;;;;7572032;19;20120;-75
2024/03/18 08:42:52;;;;;;;3.75;0.90;;;;;;;;;;7563797;19;20379;-74
2024/03/18 08:45:24;;;;;;;1.80;1.08;;;;;;;;;;7579498;19;20031;-75
2024/03/18 08:47:55;;;;;;;5.30;1.10;;;;;;;;;;7580852;19;20018;-75
2024/03/18 08:50:27;;;;;;;1.27;1.00;;;;;;;;;;7580001;19;20022;-76
2024/03/18 08:52:58;;;;;;;6.13;1.13;;;;;;;;;;7581864;19;20540;-76
2024/03/18 08:55:30;;;;;;;1.38;0.90;;;;;;;;;;7567750;19;20018;-76
2024/03/18 08:58:02;;;;;;;3.08;1.00;;;;;;;;;;7581931;19;20372;-76
2024/03/18 09:00:33;;;;;;;3.92;0.90;;;;;;;;;;7576358;19;20417;-75
2024/03/18 09:03:05;;;;;;;2.33;1.05;;;;;;;;;;7579375;19;20015;-76
2024/03/18 09:05:37;;;;;;;2.78;0.80;;;;;;;;;;7582128;19;20025;-75
2024/03/18 09:08:09;;;;;;;3.28;1.25;;;;;;;;;;7594848;19;20014;-76
2024/03/18 09:10:41;;;;;;;2.75;1.20;;;;;;;;;;7571306;19;20105;-77
2024/03/18 09:13:14;;;;;;;6.10;1.20;;;;;;;;;;7584866;19;20018;-78
2024/03/18 09:15:45;;;;;;;2.40;1.10;;;;;;;;;;7580954;19;20022;-75
2024/03/18 09:18:17;;;;;;;1.00;0.80;;;;;;;;;;7589092;19;20015;-76
2024/03/18 09:20:52;;;;;;;4.35;1.27;;;;;;;;;;7572368;19;20021;-75
2024/03/18 09:23:24;;;;;;;10.57;1.33;;;;;;;;;;7572016;19;20037;-75
2024/03/18 09:25:56;;;;;;;5.40;0.90;;;;;;;;;;7567529;19;20283;-76
2024/03/18 09:28:28;;;;;;;6.43;1.30;;;;;;;;;;7578930;19;20014;-76
2024/03/18 09:31:01;;;;;;;2.25;1.00;;;;;;;;;;7588153;19;20520;-76
2024/03/18 09:33:32;;;;;;;7.88;1.05;;;;;;;;;;7572166;19;20019;-76
2024/03/18 09:36:04;;;;;;;3.78;1.38;;;;;;;;;;7585460;19;20026;-76
2024/03/18 09:38:35;;;;;;;2.35;0.98;;;;;;;;;;7582502;19;20030;-75
2024/03/18 09:41:08;;;;;;;4.45;0.88;;;;;;;;;;7596303;19;20023;-76
2024/03/18 09:43:40;;;;;;;3.73;1.00;;;;;;;;;;7583294;19;20026;-75
2024/03/18 09:46:13;;;;;;;7.53;1.98;;;;;;;;;;7582470;19;20006;-75
2024/03/18 09:48:45;;;;;;;7.13;1.60;;;;;;;;;;7580670;19;20022;-75
2024/03/18 09:51:18;;;;;;;11.23;1.73;;;;;;;;;;7580105;19;20032;-74
2024/03/18 09:53:49;;;;;;;3.42;1.15;;;;;;;;;;7571256;19;20022;-75
2024/03/18 09:56:21;;;;;;;3.45;1.33;;;;;;;;;;7598867;19;20030;-75
2024/03/18 09:58:53;;;;;;;2.30;1.08;;;;;;;;;;7577448;19;20014;-74
2024/03/18 10:01:25;;;;;;;3.00;1.20;;;;;;;;;;7572503;19;20014;-75
2024/03/18 10:03:58;;;;;;;12.10;7.03;;;;;;;;;;7584008;19;20094;-75
2024/03/18 10:06:33;;;;;;;7.45;3.55;;;;;;;;;;7576278;19;20025;-74
2024/03/18 10:09:05;;;;;;;7.80;2.10;;;;;;;;;;7577903;19;20048;-75
2024/03/18 10:11:36;;;;;;;20.10;3.50;;;;;;;;;;7578594;19;20018;-75
2024/03/18 10:14:08;;;;;;;10.43;2.33;;;;;;;;;;7587185;19;20045;-74
2024/03/18 10:16:40;;;;;;;3.95;1.40;;;;;;;;;;7565823;19;20024;-75
2024/03/18 10:19:17;;;;;;;6.07;1.70;;;;;;;;;;7578816;19;20019;-75
2024/03/18 10:21:51;;;;;;;5.10;2.20;;;;;;;;;;7587685;19;20873;-75
2024/03/18 10:24:23;;;;;;;5.53;1.40;;;;;;;;;;7565868;19;20011;-75
2024/03/18 10:26:54;;;;;;;4.75;1.70;;;;;;;;;;7563640;19;20015;-75
2024/03/18 10:29:26;;;;;;;3.22;1.00;;;;;;;;;;7589502;19;20014;-76
2024/03/18 10:31:58;;;;;;;5.47;1.50;;;;;;;;;;7574379;19;20113;-76
2024/03/18 10:34:33;;;;;;;17.38;2.67;;;;;;;;;;7586244;19;20022;-75
2024/03/18 10:37:05;;;;;;;3.17;1.65;;;;;;;;;;7577516;19;20040;-76
2024/03/18 10:39:45;;;;;;;5.05;2.08;;;;;;;;;;7583790;19;20025;-75
2024/03/18 10:42:17;;;;;;;3.88;1.60;;;;;;;;;;7576802;19;20015;-76
2024/03/18 10:44:56;;;;;;;3.45;1.50;;;;;;;;;;7583810;19;20017;-76
2024/03/18 10:47:28;;;;;;;4.88;1.77;;;;;;;;;;7585076;19;20010;-75
2024/03/18 10:50:00;;;;;;;2.95;1.35;;;;;;;;;;7577333;19;21080;-76
2024/03/18 10:52:32;;;;;;;1.98;1.40;;;;;;;;;;7556230;19;20909;-75
2024/03/18 10:55:04;;;;;;;8.63;2.22;;;;;;;;;;7574235;19;20128;-76
2024/03/18 10:57:35;;;;;;;4.88;2.30;;;;;;;;;;7548837;19;20022;-78
2024/03/18 11:00:11;;;;;;;15.70;3.00;;;;;;;;;;7551684;19;20025;-76
2024/03/18 11:02:51;;;;;;;5.22;1.67;;;;;;;;;;7574288;19;20033;-75
2024/03/18 11:05:26;;;;;;;4.40;1.27;;;;;;;;;;7570664;19;20011;-77
2024/03/18 11:08:02;;;;;;;15.35;2.08;;;;;;;;;;7565331;19;20025;-76
2024/03/18 11:10:38;;;;;;;3.97;1.13;;;;;;;;;;7569941;19;20022;-75
2024/03/18 11:13:10;;;;;;;3.58;1.30;;;;;;;;;;7562074;19;20022;-75
2024/03/18 11:16:01;;;;;;;7.65;1.75;;;;;;;;;;7562414;19;20040;-76
2024/03/18 11:18:35;;;;;;;16.60;2.03;;;;;;;;;;7549942;19;20897;-74
2024/03/18 11:21:07;;;;;;;6.88;1.80;;;;;;;;;;7550890;19;21111;-76
2024/03/18 11:23:40;;;;;;;5.13;1.92;;;;;;;;;;7552267;19;20006;-76
2024/03/18 11:26:12;;;;;;;9.35;2.42;;;;;;;;;;7552926;19;20014;-76
2024/03/18 11:28:45;;;;;;;10.95;1.60;;;;;;;;;;7569256;19;21370;-76
2024/03/18 11:31:16;;;;;;;;;;;;;;;;;;7572292;19;20014;-76
2024/03/18 11:33:48;;;;;;;4.60;1.70;;;;;;;;;;7547331;19;19918;-76
2024/03/18 11:36:20;;;;;;;6.20;1.60;;;;;;;;;;7547611;19;20027;-76
2024/03/18 11:38:56;;;;;;;8.93;1.90;;;;;;;;;;7557567;19;20022;-76
2024/03/18 11:41:28;;;;;;;5.25;1.77;;;;;;;;;;7576336;19;20841;-76
2024/03/18 11:43:59;;;;;;;8.88;2.13;;;;;;;;;;7564571;19;20010;-76
2024/03/18 11:46:32;;;;;;;10.60;2.38;;;;;;;;;;7554673;19;20026;-76
2024/03/18 11:49:05;;;;;;;6.75;1.95;;;;;;;;;;7567313;19;21147;-76
2024/03/18 11:51:37;;;;;;;6.85;2.60;;;;;;;;;;7553619;19;20029;-76
2024/03/18 11:54:09;;;;;;;33.35;3.95;;;;;;;;;;7549090;19;20503;-76
2024/03/18 11:56:40;;;;;;;8.93;1.90;;;;;;;;;;7558019;19;20015;-76
2024/03/18 11:59:15;;;;;;;6.13;2.30;;;;;;;;;;7547022;19;20355;-76
2024/03/18 12:01:50;;;;;;;5.22;2.30;;;;;;;;;;7563798;19;21131;-76
2024/03/18 12:04:22;;;;;;;19.02;2.83;;;;;;;;;;7568694;19;20015;-77
2024/03/18 12:06:53;;;;;;;7.90;2.78;;;;;;;;;;7549978;19;20019;-75
2024/03/18 12:09:27;;;;;;;17.55;2.75;;;;;;;;;;7554132;19;21215;-77
2024/03/18 12:12:00;;;;;;;9.43;2.30;;;;;;;;;;7532921;19;20090;-77
2024/03/18 12:14:31;;;;;;;16.52;2.83;;;;;;;;;;7509000;19;20123;-74
2024/03/18 12:17:03;;;;;;;13.52;2.40;;;;;;;;;;7528415;19;20105;-77
2024/03/18 12:19:37;;;;;;;13.98;3.28;;;;;;;;;;7546521;19;21165;-75
2024/03/18 12:22:12;;;;;;;20.05;3.35;;;;;;;;;;7544559;19;20014;-76
2024/03/18 12:30:27;;;;;;;11.60;3.63;;;;;;;;;;7530462;19;20026;-76
2024/03/18 12:33:06;;;;;;;10.63;3.55;;;;;;;;;;7550080;19;20269;-75
2024/03/18 12:35:39;;;;;;;7.63;3.22;;;;;;;;;;7530987;19;20011;-75
2024/03/18 12:38:10;;;;;;;12.63;3.08;;;;;;;;;;7538353;19;20010;-75
2024/03/18 12:40:42;;;;;;;5.47;2.53;;;;;;;;;;7546160;19;20027;-75
2024/03/18 12:43:13;;;;;;;6.18;2.85;;;;;;;;;;7557749;19;21197;-75
2024/03/18 12:45:46;;;;;;;10.07;3.42;;;;;;;;;;7548170;19;20022;-75
2024/03/18 12:48:18;;;;;;;9.03;3.30;;;;;;;;;;7551571;19;20738;-75
2024/03/18 12:50:49;;;;;;;8.63;3.47;;;;;;;;;;7539823;19;20021;-75
2024/03/18 12:53:21;;;;;;;11.73;4.35;;;;;;;;;;7558144;19;20026;-75
2024/03/18 12:55:53;;;;;;;8.48;4.72;;;;;;;;;;7553336;19;20036;-75
2024/03/18 12:58:25;;;;;;;12.93;5.47;;;;;;;;;;7568576;19;21164;-75
2024/03/18 13:00:57;;;;;;;12.75;5.15;;;;;;;;;;7556456;19;20030;-75
2024/03/18 13:03:29;;;;;;;24.92;11.60;;;;;;;;;;7554497;19;20014;-75
2024/03/18 13:06:01;;;;;;;14.43;5.85;;;;;;;;;;7554737;19;20043;-75
2024/03/18 13:08:33;;;;;;;14.30;6.13;;;;;;;;;;7570531;19;20036;-75
2024/03/18 13:11:06;;;;;;;11.80;5.20;;;;;;;;;;7567505;19;20018;-75
2024/03/18 13:13:43;;;;;;;13.50;5.28;;;;;;;;;;7559603;19;20362;-75
2024/03/18 13:16:14;;;;;;;14.50;4.78;;;;;;;;;;7537736;19;20037;-75
2024/03/18 13:18:46;;;;;;;10.27;5.03;;;;;;;;;;7528991;19;20368;-68
2024/03/18 13:21:18;;;;;;;10.77;5.30;;;;;;;;;;7535675;19;20014;-74
2024/03/18 13:23:50;;;;;;;12.25;5.60;;;;;;;;;;7524824;19;20114;-75
2024/03/18 13:26:22;;;;;;;8.70;5.13;;;;;;;;;;7560400;19;20022;-74
2024/03/18 13:28:53;;;;;;;12.73;5.93;;;;;;;;;;7556629;19;20015;-75
2024/03/18 13:31:25;;;;;;;10.15;5.90;;;;;;;;;;7583384;19;20033;-75
2024/03/18 13:33:56;;;;;;;16.80;6.80;;;;;;;;;;7575613;19;20029;-75
2024/03/18 13:36:28;;;;;;;13.55;6.15;;;;;;;;;;7561476;19;20804;-75
2024/03/18 13:39:00;;;;;;;14.68;6.10;;;;;;;;;;7546844;19;20003;-75
2024/03/18 13:41:33;;;;;;;13.47;5.10;;;;;;;;;;7552995;19;20015;-75
2024/03/18 13:44:04;;;;;;;12.00;6.50;;;;;;;;;;7551134;19;20011;-75
2024/03/18 13:46:36;;;;;;;10.60;6.40;;;;;;;;;;7536143;19;20027;-74
2024/03/18 13:49:07;;;;;;;12.57;6.28;;;;;;;;;;7475214;19;30697;-73
2024/03/18 13:51:40;;;;;;;12.93;6.60;;;;;;;;;;7497985;19;20010;-76
2024/03/18 13:54:11;;;;;;;17.55;6.85;;;;;;;;;;7532504;19;20019;-77
2024/03/18 13:56:43;;;;;;;11.10;7.18;;;;;;;;;;7531070;19;20014;-76
2024/03/18 13:59:15;;;;;;;12.07;7.20;;;;;;;;;;7529956;19;20869;-76
2024/03/18 14:01:47;;;;;;;16.35;8.13;;;;;;;;;;7547696;19;20047;-75
2024/03/18 14:04:18;;;;;;;12.52;7.28;;;;;;;;;;7511311;19;21179;-76
2024/03/18 14:06:50;;;;;;;19.73;7.80;;;;;;;;;;7550970;19;20954;-75
2024/03/18 14:09:23;;;;;;;15.15;7.82;;;;;;;;;;7523345;19;20052;-78
2024/03/18 14:11:55;;;;;;;13.15;7.82;;;;;;;;;;7541445;19;20072;-74
2024/03/18 14:14:29;;;;;;;11.95;6.88;;;;;;;;;;7536003;19;20374;-74
2024/03/18 14:17:02;;;;;;;19.55;9.35;;;;;;;;;;7552833;19;20103;-74
2024/03/18 14:19:33;;;;;;;25.38;9.63;;;;;;;;;;7572214;19;20015;-74
2024/03/18 14:22:05;;;;;;;24.42;9.23;;;;;;;;;;7548598;19;20059;-77
2024/03/18 14:24:43;;;;;;;16.38;7.93;;;;;;;;;;7519844;19;20021;-74
2024/03/18 14:27:15;;;;;;;13.45;8.18;;;;;;;;;;7546316;19;20018;-74
2024/03/18 14:29:46;;;;;;;16.25;8.18;;;;;;;;;;7519391;19;20269;-75
2024/03/18 14:32:18;;;;;;;17.95;8.77;;;;;;;;;;7519884;19;20022;-74
2024/03/18 14:34:50;;;;;;;15.77;9.65;;;;;;;;;;7511209;19;20018;-75
2024/03/18 14:37:24;;;;;;;16.67;8.25;;;;;;;;;;7512854;19;20018;-75
2024/03/18 14:39:58;;;;;;;18.15;8.65;;;;;;;;;;7528323;19;20585;-75
2024/03/18 14:42:31;;;;;;;19.88;9.05;;;;;;;;;;7520639;19;20015;-74
2024/03/18 14:45:03;;;;;;;12.35;7.88;;;;;;;;;;7527759;19;20014;-75
2024/03/18 14:47:34;;;;;;;15.20;9.95;;;;;;;;;;7536987;19;20018;-79
2024/03/18 14:50:06;;;;;;;21.77;11.13;;;;;;;;;;7519612;19;20047;-77
2024/03/18 14:52:38;;;;;;;14.77;8.48;;;;;;;;;;7529703;19;20022;-76
2024/03/18 14:55:15;;;;;;;13.85;8.02;;;;;;;;;;7498714;19;20430;-76
2024/03/18 14:57:47;;;;;;;12.30;7.78;;;;;;;;;;7544006;19;20101;-77
2024/03/18 15:00:19;;;;;;;16.30;7.78;;;;;;;;;;7557125;19;20655;-74
2024/03/18 15:02:51;;;;;;;24.35;8.40;;;;;;;;;;7556026;19;20095;-76
2024/03/18 15:05:23;;;;;;;17.42;9.32;;;;;;;;;;7533479;19;21109;-75
2024/03/18 15:07:54;;;;;;;15.25;9.18;;;;;;;;;;7518886;19;20070;-75
2024/03/18 15:10:26;;;;;;;17.10;10.85;;;;;;;;;;7547579;19;20094;-76
2024/03/18 15:12:58;;;;;;;18.45;10.68;;;;;;;;;;7550380;19;20022;-76
2024/03/18 15:15:29;;;;;;;20.27;9.85;;;;;;;;;;7558120;19;20014;-76